Time;durP1;ratioP1;P1;durP2;ratioP2;P2;SDS_P1;SDS_P2;PMS_P1;PMS_P2;Temp;Humidity;BMP_temperature;BMP_pressure;BME280_temperature;BME280_humidity;BME280_pressure;Samples;Min_cycle;Max_cycle;Signal;HPM_P1;HPM_P2
2023/04/09 00:00:28;;;;;;;12.00;10.80;;;;;;;3.08;nan;98298.63;1726283;75;24255;-77
2023/04/09 00:02:58;;;;;;;15.90;14.20;;;;;;;2.87;nan;98311.31;1727582;75;24193;-77
2023/04/09 00:05:30;;;;;;;14.60;12.60;;;;;;;2.95;nan;98299.19;1726607;75;24198;-74
2023/04/09 00:07:59;;;;;;;13.50;12.20;;;;;;;2.90;nan;98307.00;1728679;75;25449;-77
2023/04/09 00:10:29;;;;;;;16.00;13.70;;;;;;;2.93;nan;98301.53;1726151;75;24174;-77
2023/04/09 00:12:59;;;;;;;13.90;12.50;;;;;;;2.92;nan;98294.63;1727809;75;24124;-76
2023/04/09 00:15:28;;;;;;;10.90;9.80;;;;;;;2.89;nan;98290.03;1726701;75;24263;-76
2023/04/09 00:17:58;;;;;;;14.00;12.70;;;;;;;2.86;nan;98293.56;1727962;75;24114;-75
2023/04/09 00:20:30;;;;;;;13.10;11.90;;;;;;;2.87;nan;98292.38;1726800;75;25000;-77
2023/04/09 00:23:00;;;;;;;11.60;10.50;;;;;;;2.92;nan;98289.22;1728032;75;24389;-75
2023/04/09 00:25:29;;;;;;;9.80;8.80;;;;;;;3.02;nan;98287.53;1726536;75;24267;-79
2023/04/09 00:27:59;;;;;;;13.20;11.80;;;;;;;2.89;nan;98289.28;1728905;75;24325;-74
2023/04/09 00:30:31;;;;;;;9.80;8.80;;;;;;;3.02;nan;98290.22;1726074;75;25040;-74
2023/04/09 00:33:01;;;;;;;9.80;8.80;;;;;;;2.90;nan;98286.13;1727962;75;27039;-77
2023/04/09 00:35:33;;;;;;;13.60;12.30;;;;;;;2.80;nan;98292.47;1726512;75;24271;-74
2023/04/09 00:38:02;;;;;;;12.40;11.10;;;;;;;2.86;nan;98288.16;1728242;75;24306;-75
2023/04/09 00:40:32;;;;;;;9.90;8.90;;;;;;;2.91;nan;98281.50;1726318;75;24272;-74
2023/04/09 00:43:02;;;;;;;7.70;7.00;;;;;;;2.95;nan;98279.50;1728170;75;24223;-79
2023/04/09 00:45:32;;;;;;;7.30;6.60;;;;;;;2.88;nan;98285.03;1726287;75;24489;-77
2023/04/09 00:48:02;;;;;;;7.30;6.60;;;;;;;2.95;nan;98291.09;1728634;75;24061;-76
2023/04/09 00:50:34;;;;;;;6.40;5.80;;;;;;;2.95;nan;98282.97;1726542;75;24794;-75
2023/04/09 00:53:04;;;;;;;6.40;5.80;;;;;;;2.88;nan;98288.47;1728091;75;24823;-76
2023/04/09 00:55:34;;;;;;;6.40;5.80;;;;;;;2.84;nan;98284.28;1726293;75;24814;-78
2023/04/09 00:58:04;;;;;;;6.50;5.90;;;;;;;2.87;nan;98284.25;1727916;75;24446;-76
2023/04/09 01:00:34;;;;;;;6.50;5.90;;;;;;;2.83;nan;98280.84;1725720;75;24256;-75
2023/04/09 01:03:05;;;;;;;7.80;6.80;;;;;;;2.81;nan;98285.13;1727781;75;24106;-74
2023/04/09 01:05:45;;;;;;;6.60;6.00;;;;;;;2.68;nan;98285.69;1726355;75;24179;-75
2023/04/09 01:08:26;;;;;;;6.40;5.80;;;;;;;2.73;nan;98287.91;1727652;75;24816;-76
2023/04/09 01:11:05;;;;;;;7.90;7.10;;;;;;;2.78;nan;98284.75;1725470;75;25481;-76
2023/04/09 01:13:44;;;;;;;7.40;6.70;;;;;;;2.77;nan;98285.94;1728055;75;24592;-74
2023/04/09 01:16:17;;;;;;;6.20;5.60;;;;;;;2.88;nan;98291.19;1725510;75;24638;-75
2023/04/09 01:18:52;;;;;;;5.80;5.20;;;;;;;2.89;nan;98286.56;1727705;75;24174;-76
2023/04/09 01:21:33;;;;;;;4.50;4.10;;;;;;;2.85;nan;98286.59;1725508;75;24671;-77
2023/04/09 01:24:29;;;;;;;6.10;5.50;;;;;;;2.89;nan;98284.63;1728130;75;24845;-74
2023/04/09 01:27:05;;;;;;;4.90;4.30;;;;;;;2.97;nan;98286.03;1727753;75;24562;-75
2023/04/09 01:29:43;;;;;;;6.40;5.30;;;;;;;2.81;nan;98288.59;1727159;75;24346;-76
2023/04/09 01:32:14;;;;;;;6.00;5.10;;;;;;;2.84;nan;98287.00;1726593;75;24224;-76
2023/04/09 01:34:46;;;;;;;6.50;5.50;;;;;;;2.94;nan;98286.88;1727125;75;25285;-76
2023/04/09 01:37:17;;;;;;;6.10;5.20;;;;;;;2.98;nan;98281.38;1728409;75;24088;-76
2023/04/09 01:39:48;;;;;;;4.50;4.10;;;;;;;2.99;nan;98275.59;1727047;75;24250;-77
2023/04/09 01:42:19;;;;;;;5.20;4.40;;;;;;;2.87;nan;98273.44;1727851;75;25018;-76
2023/04/09 01:44:52;;;;;;;5.90;5.30;;;;;;;2.76;nan;98270.88;1726856;75;24331;-73
2023/04/09 01:47:22;;;;;;;5.90;5.30;;;;;;;2.68;nan;98274.88;1727992;75;24227;-75
2023/04/09 01:49:53;;;;;;;7.40;6.70;;;;;;;2.63;nan;98275.31;1726527;75;24267;-74
2023/04/09 01:52:23;;;;;;;6.90;6.20;;;;;;;2.73;nan;98277.09;1727467;75;24467;-74
2023/04/09 01:54:52;;;;;;;5.80;5.20;;;;;;;2.88;nan;98274.97;1726454;75;24280;-73
2023/04/09 01:57:22;;;;;;;5.20;4.70;;;;;;;2.95;nan;98268.69;1728291;75;24051;-75
2023/04/09 01:59:56;;;;;;;6.40;5.80;;;;;;;2.76;nan;98265.47;1726559;75;24237;-76
2023/04/09 02:02:38;;;;;;;6.80;6.10;;;;;;;2.71;nan;98265.19;1728024;75;24333;-76
2023/04/09 02:05:12;;;;;;;8.20;6.50;;;;;;;2.81;nan;98268.91;1726056;75;24181;-76
2023/04/09 02:07:47;;;;;;;6.20;5.60;;;;;;;2.91;nan;98268.75;1728224;75;24268;-77
2023/04/09 02:10:18;;;;;;;4.70;4.20;;;;;;;2.89;nan;98271.09;1725822;75;24230;-76
2023/04/09 02:12:51;;;;;;;4.90;4.10;;;;;;;2.97;nan;98271.75;1728240;75;24945;-76
2023/04/09 02:15:25;;;;;;;4.40;4.00;;;;;;;2.95;nan;98263.28;1725892;75;24582;-75
2023/04/09 02:17:55;;;;;;;4.00;3.70;;;;;;;3.00;nan;98270.94;1728472;75;24635;-73
2023/04/09 02:20:24;;;;;;;4.40;3.50;;;;;;;3.01;nan;98266.28;1726207;75;24699;-76
2023/04/09 02:22:54;;;;;;;3.40;3.10;;;;;;;3.04;nan;98262.78;1728517;75;24186;-76
2023/04/09 02:25:24;;;;;;;3.90;3.30;;;;;;;3.01;nan;98266.28;1726377;75;25896;-74
2023/04/09 02:27:54;;;;;;;3.80;3.40;;;;;;;3.05;nan;98265.06;1728730;75;24240;-76
2023/04/09 02:30:26;;;;;;;4.10;3.70;;;;;;;3.09;nan;98268.47;1726128;75;24308;-74
2023/04/09 02:32:56;;;;;;;4.10;3.60;;;;;;;3.13;nan;98263.03;1728717;75;24187;-75
2023/04/09 02:35:26;;;;;;;3.90;3.20;;;;;;;3.20;nan;98263.69;1727197;75;24228;-75
2023/04/09 02:37:55;;;;;;;3.60;3.30;;;;;;;3.13;nan;98263.03;1729175;75;24536;-75
2023/04/09 02:40:25;;;;;;;4.50;4.10;;;;;;;2.94;nan;98257.13;1726207;83;24108;-77
2023/04/09 02:42:55;;;;;;;5.90;5.30;;;;;;;2.86;nan;98253.00;1728612;75;24229;-77
2023/04/09 02:45:28;;;;;;;7.40;6.40;;;;;;;2.86;nan;98260.31;1725544;75;24043;-74
2023/04/09 02:47:58;;;;;;;6.30;5.70;;;;;;;2.92;nan;98254.06;1728089;75;24262;-74
2023/04/09 02:50:28;;;;;;;5.20;4.70;;;;;;;3.06;nan;98252.31;1725299;75;24988;-73
2023/04/09 02:52:58;;;;;;;4.90;4.40;;;;;;;2.99;nan;98251.25;1727586;75;24218;-75
2023/04/09 02:55:28;;;;;;;6.00;5.40;;;;;;;2.85;nan;98251.44;1725754;75;24154;-75
2023/04/09 02:57:58;;;;;;;7.60;6.80;;;;;;;2.89;nan;98240.59;1728560;75;24333;-76
2023/04/09 03:00:30;;;;;;;6.30;5.70;;;;;;;2.89;nan;98251.41;1725631;75;24881;-76
2023/04/09 03:03:00;;;;;;;7.10;6.00;;;;;;;2.90;nan;98252.94;1728120;75;24168;-76
2023/04/09 03:05:29;;;;;;;5.60;5.10;;;;;;;2.92;nan;98247.88;1726060;75;24216;-76
2023/04/09 03:07:59;;;;;;;6.00;5.10;;;;;;;2.94;nan;98251.72;1728496;75;24733;-76
2023/04/09 03:10:28;;;;;;;5.00;4.50;;;;;;;3.02;nan;98249.66;1725971;75;24245;-77
2023/04/09 03:12:58;;;;;;;4.90;4.40;;;;;;;3.04;nan;98249.25;1727927;75;24175;-76
2023/04/09 03:15:30;;;;;;;5.70;5.20;;;;;;;2.90;nan;98250.22;1725850;75;24895;-74
2023/04/09 03:18:00;;;;;;;7.80;7.10;;;;;;;2.70;nan;98247.44;1727677;75;24160;-76
2023/04/09 03:20:29;;;;;;;7.70;7.00;;;;;;;2.64;nan;98244.41;1724823;75;25422;-74
2023/04/09 03:22:59;;;;;;;7.20;6.50;;;;;;;2.66;nan;98244.75;1727260;75;24924;-76
2023/04/09 03:25:29;;;;;;;6.80;6.10;;;;;;;2.74;nan;98248.91;1724795;75;24070;-73
2023/04/09 03:27:58;;;;;;;6.50;5.90;;;;;;;2.75;nan;98234.22;1727117;75;24187;-77
2023/04/09 03:30:30;;;;;;;6.40;5.80;;;;;;;2.72;nan;98245.84;1724104;75;24271;-75
2023/04/09 03:33:00;;;;;;;5.70;5.10;;;;;;;2.72;nan;98245.84;1726776;75;25060;-76
2023/04/09 03:35:30;;;;;;;5.20;4.70;;;;;;;2.72;nan;98245.09;1724715;75;24690;-74
2023/04/09 03:37:59;;;;;;;4.90;4.40;;;;;;;2.74;nan;98253.53;1727578;75;24174;-75
2023/04/09 03:40:29;;;;;;;4.50;4.10;;;;;;;2.83;nan;98240.28;1724110;75;24150;-76
2023/04/09 03:42:58;;;;;;;4.50;4.00;;;;;;;2.76;nan;98237.69;1727046;75;24177;-73
2023/04/09 03:45:32;;;;;;;4.90;4.40;;;;;;;2.77;nan;98250.03;1723458;75;24300;-77
2023/04/09 03:48:02;;;;;;;4.70;4.30;;;;;;;2.75;nan;98241.56;1726599;75;24601;-75
2023/04/09 03:50:31;;;;;;;4.60;4.10;;;;;;;2.71;nan;98246.25;1723214;75;24320;-75
2023/04/09 03:53:01;;;;;;;5.50;5.00;;;;;;;2.82;nan;98240.69;1726287;75;24172;-74
2023/04/09 03:55:30;;;;;;;7.00;6.30;;;;;;;2.66;nan;98241.31;1723562;75;24054;-77
2023/04/09 03:58:00;;;;;;;6.20;5.60;;;;;;;2.69;nan;98246.66;1726308;75;24449;-78
2023/04/09 04:00:32;;;;;;;6.00;5.40;;;;;;;2.69;nan;98237.78;1722928;75;24355;-76
2023/04/09 04:03:02;;;;;;;6.80;6.10;;;;;;;2.60;nan;98251.03;1725942;75;25740;-78
2023/04/09 04:05:31;;;;;;;8.00;7.20;;;;;;;2.55;nan;98252.28;1723054;75;24738;-77
2023/04/09 04:08:01;;;;;;;7.40;6.70;;;;;;;2.62;nan;98248.69;1725872;75;24240;-75
2023/04/09 04:10:30;;;;;;;6.50;5.90;;;;;;;2.63;nan;98258.34;1723028;75;24846;-77
2023/04/09 04:13:00;;;;;;;6.60;6.00;;;;;;;2.59;nan;98252.22;1728067;75;24118;-77
2023/04/09 04:15:33;;;;;;;7.30;6.60;;;;;;;2.47;nan;98258.94;1724813;75;24081;-76
2023/04/09 04:18:02;;;;;;;8.60;7.70;;;;;;;2.50;nan;98260.81;1726749;83;24746;-79
2023/04/09 04:20:34;;;;;;;8.30;7.50;;;;;;;2.51;nan;98259.66;1723909;75;25640;-78
2023/04/09 04:23:03;;;;;;;9.30;8.40;;;;;;;2.52;nan;98267.34;1726263;75;25031;-77
2023/04/09 04:25:34;;;;;;;8.40;7.60;;;;;;;2.49;nan;98262.75;1724252;75;24983;-76
2023/04/09 04:28:03;;;;;;;7.80;7.00;;;;;;;2.52;nan;98269.28;1726099;75;24170;-76
2023/04/09 04:30:35;;;;;;;7.60;6.90;;;;;;;2.51;nan;98275.88;1723734;75;24058;-77
2023/04/09 04:33:05;;;;;;;6.70;6.10;;;;;;;2.59;nan;98269.19;1726660;75;24281;-77
2023/04/09 04:35:35;;;;;;;6.50;5.90;;;;;;;2.66;nan;98271.78;1724427;75;24833;-75
2023/04/09 04:38:05;;;;;;;6.50;5.90;;;;;;;2.60;nan;98267.25;1726731;75;24297;-76
2023/04/09 04:40:34;;;;;;;7.00;6.30;;;;;;;2.52;nan;98269.28;1723802;75;24917;-75
2023/04/09 04:43:04;;;;;;;7.10;6.40;;;;;;;2.61;nan;98268.78;1726579;75;24651;-76
2023/04/09 04:45:36;;;;;;;7.60;6.80;;;;;;;2.58;nan;98269.63;1723815;75;24873;-79
2023/04/09 04:48:06;;;;;;;8.40;7.60;;;;;;;2.59;nan;98261.09;1726890;75;24267;-77
2023/04/09 04:50:35;;;;;;;11.90;10.70;;;;;;;2.54;nan;98267.72;1724349;75;25702;-76
2023/04/09 04:53:05;;;;;;;9.40;8.50;;;;;;;2.60;nan;98273.44;1727031;75;25006;-77
2023/04/09 04:55:38;;;;;;;7.90;7.10;;;;;;;2.67;nan;98261.75;1724679;75;24681;-75
2023/04/09 04:58:08;;;;;;;7.40;6.70;;;;;;;2.72;nan;98264.00;1726949;83;24705;-76
2023/04/09 05:00:40;;;;;;;6.70;6.10;;;;;;;2.65;nan;98272.22;1723223;75;24710;-74
2023/04/09 05:03:10;;;;;;;7.20;6.50;;;;;;;2.81;nan;98269.66;1727519;75;24169;-72
2023/04/09 05:05:39;;;;;;;6.50;5.60;;;;;;;2.89;nan;98260.28;1724713;75;24704;-77
2023/04/09 05:08:09;;;;;;;6.20;5.60;;;;;;;2.90;nan;98272.63;1725905;75;25166;-76
2023/04/09 05:10:38;;;;;;;6.50;5.70;;;;;;;2.92;nan;98270.28;1724149;75;24874;-75
2023/04/09 05:13:08;;;;;;;5.30;4.80;;;;;;;2.97;nan;98272.50;1726907;75;24715;-75
2023/04/09 05:15:43;;;;;;;5.80;5.20;;;;;;;2.92;nan;98272.22;1723809;75;24823;-74
2023/04/09 05:18:13;;;;;;;5.90;5.00;;;;;;;3.08;nan;98274.28;1726473;75;24195;-75
2023/04/09 05:20:42;;;;;;;5.20;4.70;;;;;;;3.09;nan;98270.41;1724375;75;24824;-77
2023/04/09 05:23:12;;;;;;;4.60;4.20;;;;;;;3.15;nan;98269.56;1726426;75;24390;-74
2023/04/09 05:25:41;;;;;;;4.80;4.30;;;;;;;3.23;nan;98270.19;1724006;75;24839;-77
2023/04/09 05:28:12;;;;;;;4.50;4.10;;;;;;;3.37;nan;98280.03;1725960;75;25002;-76
2023/04/09 05:30:47;;;;;;;4.70;4.30;;;;;;;3.32;nan;98278.56;1723475;75;24676;-76
2023/04/09 05:33:17;;;;;;;4.60;4.10;;;;;;;3.33;nan;98285.50;1726108;75;24619;-74
2023/04/09 05:35:46;;;;;;;5.90;5.30;;;;;;;3.19;nan;98285.72;1723940;75;25017;-77
2023/04/09 05:38:16;;;;;;;7.70;6.50;;;;;;;3.12;nan;98285.81;1726428;75;24421;-74
2023/04/09 05:40:47;;;;;;;8.30;7.50;;;;;;;3.06;nan;98290.94;1723734;75;25058;-75
2023/04/09 05:43:17;;;;;;;7.10;6.40;;;;;;;3.27;nan;98289.06;1726415;75;24241;-76
2023/04/09 05:45:49;;;;;;;5.60;5.10;;;;;;;3.43;nan;98297.31;1723824;83;24851;-74
2023/04/09 05:48:20;;;;;;;6.20;5.30;;;;;;;3.35;nan;98288.56;1724264;75;24156;-75
2023/04/09 05:50:52;;;;;;;6.00;5.40;;;;;;;3.34;nan;98286.25;1723093;75;26189;-74
2023/04/09 05:53:22;;;;;;;7.20;6.50;;;;;;;3.41;nan;98288.84;1725616;75;25142;-78
2023/04/09 05:55:51;;;;;;;7.50;6.70;;;;;;;3.53;nan;98290.97;1723779;75;24336;-74
2023/04/09 05:58:21;;;;;;;12.50;10.70;;;;;;;3.47;nan;98289.91;1726181;75;24773;-76
2023/04/09 06:00:53;;;;;;;12.70;11.50;;;;;;;3.38;nan;98298.56;1724318;75;24700;-77
2023/04/09 06:03:23;;;;;;;11.60;10.40;;;;;;;3.39;nan;98294.69;1726043;75;24205;-75
2023/04/09 06:05:52;;;;;;;10.70;9.60;;;;;;;3.55;nan;98304.84;1724771;75;24851;-75
2023/04/09 06:08:22;;;;;;;9.00;8.10;;;;;;;3.61;nan;98305.16;1725890;75;24767;-75
2023/04/09 06:10:51;;;;;;;8.90;8.00;;;;;;;3.57;nan;98294.38;1724941;75;24713;-75
2023/04/09 06:13:21;;;;;;;8.70;7.90;;;;;;;3.48;nan;98296.84;1725219;75;24162;-75
2023/04/09 06:15:53;;;;;;;8.90;8.00;;;;;;;3.66;nan;98301.22;1726712;75;24940;-76
2023/04/09 06:18:23;;;;;;;9.30;8.40;;;;;;;3.58;nan;98300.56;1725535;75;24157;-74
2023/04/09 06:21:02;;;;;;;8.00;7.20;;;;;;;3.72;nan;98300.31;1725603;75;25579;-77
2023/04/09 06:23:32;;;;;;;8.60;7.60;;;;;;;3.79;nan;98302.91;1724783;75;25057;-75
2023/04/09 06:26:02;;;;;;;13.10;11.80;;;;;;;3.49;nan;98303.03;1726526;75;24309;-75
2023/04/09 06:28:32;;;;;;;10.20;9.20;;;;;;;3.63;nan;98303.56;1724698;75;24184;-74
2023/04/09 06:31:04;;;;;;;18.30;16.40;;;;;;;3.42;nan;98304.69;1726172;75;24279;-75
2023/04/09 06:33:34;;;;;;;12.60;11.30;;;;;;;3.59;nan;98319.09;1724890;75;25303;-77
2023/04/09 06:36:03;;;;;;;10.30;9.30;;;;;;;3.46;nan;98310.03;1725475;75;25107;-75
2023/04/09 06:38:33;;;;;;;13.20;11.80;;;;;;;3.39;nan;98308.22;1725044;75;24849;-77
2023/04/09 06:41:05;;;;;;;12.70;11.50;;;;;;;3.44;nan;98309.69;1726431;75;25115;-75
2023/04/09 06:43:35;;;;;;;10.10;9.10;;;;;;;3.48;nan;98309.63;1724554;75;24663;-76
2023/04/09 06:46:08;;;;;;;9.20;8.30;;;;;;;3.52;nan;98313.03;1726383;75;24221;-75
2023/04/09 06:48:37;;;;;;;9.60;8.60;;;;;;;3.53;nan;98315.31;1725631;75;24158;-77
2023/04/09 06:51:09;;;;;;;8.40;7.60;;;;;;;3.48;nan;98323.16;1726200;75;24702;-75
2023/04/09 06:53:39;;;;;;;10.80;9.80;;;;;;;3.41;nan;98318.63;1725630;75;24179;-73
2023/04/09 06:56:10;;;;;;;14.10;12.60;;;;;;;3.47;nan;98319.69;1726586;75;24162;-75
2023/04/09 06:58:39;;;;;;;12.60;11.20;;;;;;;3.57;nan;98324.16;1726141;75;25397;-73
2023/04/09 07:01:12;;;;;;;9.90;8.90;;;;;;;3.70;nan;98323.56;1726175;75;25099;-73
2023/04/09 07:03:42;;;;;;;8.50;7.70;;;;;;;3.71;nan;98325.13;1726332;75;24706;-78
2023/04/09 07:06:11;;;;;;;10.00;9.00;;;;;;;3.56;nan;98332.69;1726921;75;25289;-76
2023/04/09 07:08:41;;;;;;;9.50;8.50;;;;;;;3.70;nan;98337.09;1726679;75;24186;-75
2023/04/09 07:11:10;;;;;;;10.00;9.00;;;;;;;3.55;nan;98339.28;1727378;75;24394;-76
2023/04/09 07:13:40;;;;;;;9.60;8.70;;;;;;;3.65;nan;98340.28;1725719;75;24237;-75
2023/04/09 07:16:19;;;;;;;9.20;8.20;;;;;;;3.67;nan;98343.34;1727229;75;24251;-75
2023/04/09 07:18:49;;;;;;;11.90;10.70;;;;;;;3.62;nan;98348.06;1726470;75;24570;-75
2023/04/09 07:21:19;;;;;;;11.50;10.30;;;;;;;3.74;nan;98352.13;1725613;75;24338;-76
2023/04/09 07:23:49;;;;;;;12.60;11.40;;;;;;;3.62;nan;98344.59;1726282;75;25031;-74
2023/04/09 07:26:19;;;;;;;13.00;11.70;;;;;;;3.75;nan;98352.88;1725052;75;25034;-74
2023/04/09 07:28:49;;;;;;;11.60;10.40;;;;;;;3.76;nan;98352.47;1725737;75;24755;-76
2023/04/09 07:31:21;;;;;;;9.40;8.50;;;;;;;3.92;nan;98351.84;1725055;75;25200;-76
2023/04/09 07:33:51;;;;;;;13.20;11.80;;;;;;;3.67;nan;98357.66;1725883;75;24096;-76
2023/04/09 07:36:20;;;;;;;13.30;11.90;;;;;;;3.77;nan;98358.66;1725227;75;24237;-75
2023/04/09 07:38:50;;;;;;;13.40;12.00;;;;;;;3.73;nan;98360.63;1726704;75;24137;-76
2023/04/09 07:41:19;;;;;;;12.50;11.20;;;;;;;3.92;nan;98359.16;1725237;75;24265;-76
2023/04/09 07:43:49;;;;;;;9.80;8.80;;;;;;;3.78;nan;98363.66;1725910;75;24589;-75
2023/04/09 07:46:25;;;;;;;8.60;7.50;;;;;;;4.04;nan;98372.91;1725278;75;24130;-77
2023/04/09 07:48:54;;;;;;;7.60;6.90;;;;;;;4.14;nan;98357.63;1726076;75;25675;-78
2023/04/09 07:51:24;;;;;;;8.70;7.80;;;;;;;4.15;nan;98367.28;1725034;75;25052;-77
2023/04/09 07:53:53;;;;;;;8.80;8.00;;;;;;;3.88;nan;98366.63;1725332;75;24159;-73
2023/04/09 07:56:23;;;;;;;10.30;9.20;;;;;;;3.96;nan;98370.72;1724603;75;24267;-77
2023/04/09 07:58:53;;;;;;;11.10;10.00;;;;;;;3.93;nan;98366.91;1725493;75;24183;-77
2023/04/09 08:01:25;;;;;;;12.50;11.30;;;;;;;3.82;nan;98369.00;1723717;75;24383;-75
2023/04/09 08:03:55;;;;;;;10.20;9.10;;;;;;;4.00;nan;98371.44;1724479;75;24360;-76
2023/04/09 08:06:25;;;;;;;8.90;8.00;;;;;;;4.25;nan;98369.03;1724221;75;24330;-78
2023/04/09 08:08:55;;;;;;;8.00;7.20;;;;;;;4.22;nan;98372.56;1725370;75;24529;-74
2023/04/09 08:11:24;;;;;;;7.40;6.70;;;;;;;4.36;nan;98378.94;1724809;75;24252;-74
2023/04/09 08:13:54;;;;;;;7.50;6.80;;;;;;;4.52;nan;98375.50;1725403;75;25076;-75
2023/04/09 08:16:28;;;;;;;9.10;8.20;;;;;;;4.35;nan;98380.84;1724470;75;24986;-76
2023/04/09 08:18:58;;;;;;;9.00;8.10;;;;;;;4.46;nan;98381.41;1725568;75;25194;-77
2023/04/09 08:21:28;;;;;;;7.60;6.90;;;;;;;4.61;nan;98376.47;1724791;75;24150;-75
2023/04/09 08:24:00;;;;;;;8.10;7.30;;;;;;;4.55;nan;98391.72;1725664;75;24915;-77
2023/04/09 08:26:29;;;;;;;7.80;7.10;;;;;;;4.54;nan;98392.88;1724430;75;25060;-74
2023/04/09 08:28:59;;;;;;;5.60;5.10;;;;;;;4.71;nan;98385.59;1724820;83;24454;-75
2023/04/09 08:31:32;;;;;;;5.50;5.00;;;;;;;4.86;nan;98388.81;1725508;75;24261;-75
2023/04/09 08:34:02;;;;;;;6.70;5.60;;;;;;;5.08;nan;98389.88;1724750;75;24940;-77
2023/04/09 08:36:33;;;;;;;6.50;5.60;;;;;;;5.08;nan;98398.00;1726272;75;24633;-74
2023/04/09 08:39:03;;;;;;;6.50;5.90;;;;;;;4.97;nan;98397.47;1724571;83;24754;-77
2023/04/09 08:41:45;;;;;;;6.20;5.60;;;;;;;5.03;nan;98393.09;1725995;75;24238;-76
2023/04/09 08:44:15;;;;;;;6.10;5.50;;;;;;;5.06;nan;98397.66;1723620;75;24169;-77
2023/04/09 08:46:47;;;;;;;5.00;4.50;;;;;;;5.18;nan;98404.41;1726220;75;24625;-77
2023/04/09 08:49:17;;;;;;;5.10;4.60;;;;;;;5.04;nan;98402.00;1724597;75;24611;-75
2023/04/09 08:51:50;;;;;;;6.10;5.50;;;;;;;4.95;nan;98405.25;1725857;83;24278;-76
2023/04/09 08:54:22;;;;;;;4.40;4.00;;;;;;;5.13;nan;98404.91;1724273;75;24513;-74
2023/04/09 08:56:51;;;;;;;6.60;6.00;;;;;;;4.81;nan;98408.25;1726270;75;24408;-75
2023/04/09 08:59:22;;;;;;;5.60;5.10;;;;;;;4.81;nan;98416.41;1723681;75;25478;-76
2023/04/09 09:02:10;;;;;;;6.40;5.40;;;;;;;4.73;nan;98415.78;1726106;75;24859;-75
2023/04/09 09:04:49;;;;;;;4.90;4.50;;;;;;;4.95;nan;98418.81;1724958;83;24894;-76
2023/04/09 09:07:19;;;;;;;5.90;4.90;;;;;;;4.87;nan;98412.78;1724181;75;24996;-76
2023/04/09 09:09:57;;;;;;;5.90;5.30;;;;;;;4.96;nan;98423.09;1725696;75;24258;-77
2023/04/09 09:12:39;;;;;;;5.00;4.60;;;;;;;5.21;nan;98416.38;1724242;75;25079;-77
2023/04/09 09:15:28;;;;;;;4.80;4.30;;;;;;;5.26;nan;98426.72;1726106;75;25927;-77
2023/04/09 09:18:02;;;;;;;4.80;4.40;;;;;;;5.42;nan;98428.72;1723631;75;25732;-76
2023/04/09 09:20:32;;;;;;;4.80;3.80;;;;;;;5.24;nan;98435.31;1725627;75;24854;-75
2023/04/09 09:23:01;;;;;;;4.80;4.40;;;;;;;5.07;nan;98429.03;1723106;75;24893;-77
2023/04/09 09:25:31;;;;;;;4.80;4.40;;;;;;;4.99;nan;98435.03;1725770;75;24783;-75
2023/04/09 09:28:10;;;;;;;5.60;5.10;;;;;;;4.90;nan;98439.06;1724065;75;24303;-77
2023/04/09 09:30:41;;;;;;;6.80;6.00;;;;;;;4.79;nan;98435.06;1725589;75;24310;-76
2023/04/09 09:33:14;;;;;;;6.10;5.50;;;;;;;4.90;nan;98439.06;1724305;75;24303;-76
2023/04/09 09:35:52;;;;;;;5.00;4.50;;;;;;;5.03;nan;98430.31;1725607;75;25124;-75
2023/04/09 09:38:22;;;;;;;;;;;;;;;5.11;nan;98431.69;1724952;75;24552;-74
2023/04/09 09:40:52;;;;;;;5.00;4.20;;;;;;;5.17;nan;98429.22;1725756;75;24783;-77
2023/04/09 09:43:22;;;;;;;4.50;4.10;;;;;;;5.26;nan;98424.75;1725321;75;24331;-75
2023/04/09 09:45:52;;;;;;;4.60;4.10;;;;;;;5.43;nan;98422.84;1725876;75;25474;-74
2023/04/09 09:48:24;;;;;;;5.20;4.70;;;;;;;5.33;nan;98421.13;1725091;75;25197;-77
2023/04/09 09:50:54;;;;;;;6.70;6.00;;;;;;;5.52;nan;98425.75;1725592;75;24210;-77
2023/04/09 09:53:27;;;;;;;6.10;5.30;;;;;;;5.66;nan;98421.19;1725778;75;24330;-73
2023/04/09 09:56:02;;;;;;;5.60;5.00;;;;;;;5.64;nan;98418.88;1725458;75;24381;-77
2023/04/09 09:58:47;;;;;;;4.80;4.30;;;;;;;6.04;nan;98426.91;1725037;75;24441;-78
2023/04/09 10:01:19;;;;;;;5.10;4.60;;;;;;;6.09;nan;98422.91;1725184;75;24336;-76
2023/04/09 10:03:53;;;;;;;5.50;4.90;;;;;;;6.31;nan;98420.41;1725274;75;24146;-74
2023/04/09 10:06:24;;;;;;;6.10;5.30;;;;;;;6.64;nan;98418.38;1725187;75;24641;-73
2023/04/09 10:08:54;;;;;;;4.80;4.40;;;;;;;6.99;nan;98421.31;1726027;75;24077;-75
2023/04/09 10:11:23;;;;;;;5.40;4.90;;;;;;;6.94;nan;98419.88;1724617;75;25379;-75
2023/04/09 10:13:58;;;;;;;5.90;5.40;;;;;;;6.91;nan;98428.16;1725981;75;24769;-76
2023/04/09 10:16:28;;;;;;;4.40;3.90;;;;;;;7.08;nan;98424.16;1724511;75;25136;-75
2023/04/09 10:19:02;;;;;;;5.00;4.40;;;;;;;7.19;nan;98423.84;1726345;75;24180;-75
2023/04/09 10:21:40;;;;;;;4.30;3.40;;;;;;;6.98;nan;98415.09;1723631;83;24813;-75
2023/04/09 10:24:10;;;;;;;;;;;;;;;7.05;nan;98422.31;1725740;75;24629;-77
2023/04/09 10:26:44;;;;;;;4.20;3.10;;;;;;;6.94;nan;98414.44;1725014;75;24217;-77
2023/04/09 10:29:16;;;;;;;3.00;2.70;;;;;;;6.96;nan;98403.88;1725586;75;24129;-75
2023/04/09 10:31:52;;;;;;;3.60;2.90;;;;;;;6.95;nan;98415.97;1725754;75;24187;-75
2023/04/09 10:34:29;;;;;;;5.60;3.40;;;;;;;6.67;nan;98409.34;1725640;83;24087;-75
2023/04/09 10:37:00;;;;;;;3.50;2.90;;;;;;;6.80;nan;98401.22;1725663;75;24277;-76
2023/04/09 10:39:31;;;;;;;2.90;2.60;;;;;;;7.01;nan;98388.97;1725319;75;25002;-75
2023/04/09 10:42:01;;;;;;;3.30;2.80;;;;;;;7.17;nan;98393.56;1726227;75;25382;-76
2023/04/09 10:44:34;;;;;;;3.20;2.50;;;;;;;7.38;nan;98389.44;1724656;75;24717;-78
2023/04/09 10:47:06;;;;;;;3.40;2.90;;;;;;;7.59;nan;98396.94;1726522;75;24673;-75
2023/04/09 10:49:43;;;;;;;2.80;2.30;;;;;;;7.75;nan;98387.88;1724710;75;24726;-76
2023/04/09 10:52:15;;;;;;;3.30;2.50;;;;;;;7.84;nan;98388.00;1726023;75;24561;-77
2023/04/09 10:54:48;;;;;;;3.20;2.60;;;;;;;7.62;nan;98387.88;1725191;75;24160;-74
2023/04/09 10:57:23;;;;;;;2.80;2.30;;;;;;;7.63;nan;98380.50;1726811;75;25015;-78
2023/04/09 10:59:55;;;;;;;4.70;2.80;;;;;;;7.50;nan;98385.19;1725524;75;24998;-75
2023/04/09 11:03:11;;;;;;;3.40;3.00;;;;;;;7.69;nan;98384.19;1726440;75;24321;-76
2023/04/09 11:05:45;;;;;;;3.90;3.10;;;;;;;7.94;nan;98377.16;1724125;83;25431;-75
2023/04/09 11:08:16;;;;;;;3.90;3.50;;;;;;;7.95;nan;98378.69;1726898;75;24289;-75
2023/04/09 11:10:47;;;;;;;4.30;3.90;;;;;;;7.92;nan;98380.34;1724299;75;24815;-77
2023/04/09 11:13:20;;;;;;;4.50;3.40;;;;;;;8.30;nan;98376.75;1726551;75;24960;-76
2023/04/09 11:15:50;;;;;;;3.50;3.20;;;;;;;8.33;nan;98370.38;1724769;75;25017;-76
2023/04/09 11:18:24;;;;;;;4.50;3.30;;;;;;;8.64;nan;98367.75;1726567;75;24156;-75
2023/04/09 11:21:00;;;;;;;5.30;4.50;;;;;;;8.95;nan;98370.53;1725187;75;24433;-77
2023/04/09 11:23:33;;;;;;;4.10;3.70;;;;;;;9.27;nan;98371.28;1727164;75;24144;-75
2023/04/09 11:26:04;;;;;;;4.00;3.60;;;;;;;9.47;nan;98367.41;1725713;75;24136;-74
2023/04/09 11:28:33;;;;;;;4.00;3.60;;;;;;;9.81;nan;98360.97;1726963;75;25015;-76
2023/04/09 11:31:06;;;;;;;5.40;4.70;;;;;;;9.29;nan;98357.94;1724892;75;24927;-75
2023/04/09 11:33:36;;;;;;;5.90;4.30;;;;;;;10.14;nan;98357.66;1726664;75;25917;-77
2023/04/09 11:36:10;;;;;;;5.40;4.50;;;;;;;10.26;nan;98347.78;1724831;75;24866;-76
2023/04/09 11:38:40;;;;;;;4.10;3.20;;;;;;;10.63;nan;98360.25;1726689;75;24649;-77
2023/04/09 11:41:12;;;;;;;3.90;3.50;;;;;;;10.70;nan;98352.94;1725202;75;24311;-78
2023/04/09 11:43:41;;;;;;;4.60;4.10;;;;;;;10.21;nan;98354.63;1725890;75;24188;-73
2023/04/09 11:46:12;;;;;;;4.00;3.40;;;;;;;9.99;nan;98352.03;1724772;75;24196;-78
2023/04/09 11:48:41;;;;;;;3.60;3.00;;;;;;;10.08;nan;98356.72;1726472;75;24587;-77
2023/04/09 11:51:14;;;;;;;3.80;3.40;;;;;;;10.39;nan;98356.63;1725398;75;24201;-77
2023/04/09 11:53:44;;;;;;;3.00;2.60;;;;;;;10.99;nan;98352.41;1726600;75;25149;-76
2023/04/09 11:56:13;;;;;;;5.40;2.80;;;;;;;11.32;nan;98351.69;1724698;75;25109;-75
2023/04/09 11:58:48;;;;;;;3.50;2.70;;;;;;;11.34;nan;98349.25;1726404;75;24561;-78
2023/04/09 12:01:18;;;;;;;3.50;3.20;;;;;;;10.88;nan;98344.69;1725159;75;24771;-78
2023/04/09 12:03:53;;;;;;;4.90;3.70;;;;;;;10.36;nan;98349.31;1726419;83;24515;-77
2023/04/09 12:06:26;;;;;;;4.50;3.20;;;;;;;10.05;nan;98349.44;1724855;75;24200;-75
2023/04/09 12:08:56;;;;;;;3.70;3.20;;;;;;;9.86;nan;98354.13;1726087;75;25700;-78
2023/04/09 12:11:31;;;;;;;3.30;3.00;;;;;;;9.85;nan;98355.34;1724854;75;25020;-76
2023/04/09 12:14:04;;;;;;;4.20;3.10;;;;;;;9.75;nan;98357.31;1726256;75;24512;-76
2023/04/09 12:16:34;;;;;;;3.30;2.80;;;;;;;9.34;nan;98357.34;1725417;75;24928;-76